Aérodrome :
LOGIN :

S'inscrire | Disclaimer

   EN    FR    IT 

 










Légende :    VFR   VFR Marginal   IFR   IFR Intensif   IFR Très Intensif
Visi : 
Plafond : 
>= 8 km
>= 3000ft
5 à 8 km
1000 à 3000 ft
1500m à 5 km
500 à 1000 ft
800 à 1500m
200 à 500 ft
< 800m
< 200 ft
Symboles :   Orages  Brouillard  Fortes neiges  Fortes précipitations  Vent > 20 kt
SIGMETs :   Divers  Orages  Givrage  Turbulence  Onde Orograph.  Cendres Volcan.






- Altitude de l'aérodrome : 106 ft
- Code IATA : NRN


EDLV - Weeze

DERNIER METAR :
  • 230120Z AUTO 20007KT 9999 // FEW051/// SCT061/// BKN086/// 19/15 Q1016

METARs EXPIRÉS :
  • 230050Z AUTO 20006KT 9999 // OVC051/// 20/15 Q1017
  • 230020Z AUTO 20006KT 9999 // FEW044/// SCT053/// BKN081/// 19/15 Q1017
  • 222350Z AUTO 18005KT 9999 // FEW043/// BKN081/// 19/15 Q1017
  • 222320Z AUTO 17006KT 9999 // FEW044/// SCT056/// BKN077/// 19/15 Q1017
  • 222250Z AUTO 18005KT 9999 // SCT045/// SCT059/// BKN078/// 19/15 Q1017
  • 222220Z AUTO 17005KT 9999 // FEW045/// SCT051/// 19/15 Q1017
  • 222150Z 16005KT CAVOK 19/15 Q1017
  • 222120Z 16005KT CAVOK 20/15 Q1017

TAF TAF EDLV
Valide du 22 à 18h jusqu'au 23 à 18h UTC


221700Z 2218/2318 24008KT 9999 FEW030
TEMPO 2220/2303 VRB03KT
TEMPO 2304/2318 SHRA BKN020CB
PROB30
TEMPO 2304/2312 4000 TSRA BKN008CB
PROB40
TEMPO 2312/2317 28015G30KT 4000 TSRA SCT015CB



MET'MAP, la Météo Aéronautique d'un coup d'oeil ! - Copyright ORBIFLY Décembre 2007 - Disclaimer

ORBIFLY MET'MAP TEAM :

Programmation & Développement : Alexandra Zaïnal
Sur une idée originale de : Baudouin d'Aumeries
Soutien technique & logistique : Manuel Goepfert
Assistance : Marc-Olivier Méhu




SOURCES & CREDITS :

   NOAA